Hundred, WV (26575)

10:25 AM EST on March 02, 2015 (GMT -0500)
Curtisville | Change Station
CLOSE
Current Station
Personal Weather Station
Location: Mannington, WV
Elevation: 1017 ft
Nearby Weather Stations

Elev 1017 ft 39.52 °N, 80.44 °W | Updated 25 seconds ago

Overcast
Overcast
30.7 °F
Feels Like 31 °F
N
0.0
Wind Variable Wind from ENE

Today
High -- | Low -- °F
--% Chance of Precip.
Yesterday
High -- | Low -- °F
Precip. -- in
6:53 AM 6:14 PM
Waxing Gibbous, 91% visible
Pressure 30.41 in
Visibility 10.0 miles
Clouds Scattered Clouds 2500 ft
Scattered Clouds 2900 ft
Mostly Cloudy 3700 ft
Windchill 31 °F
Dew Point 20 °F
Humidity 63%
Rainfall 0.09 in
Snow Depth Not available.
UV 2 out of 12
Pollen .60 out of 12
Air Quality Not available.
Flu Activity Not available.
SPECI KMGW 021512Z 29009KT 10SM SCT025 SCT029 BKN037 M02/M09 A3041 RMK AO2 T10171089

More Conditions Fewer Conditions

Pressure 30.41 in
Visibility 10.0 miles
Clouds Scattered Clouds 2500 ft
Scattered Clouds 2900 ft
Mostly Cloudy 3700 ft
Windchill 31 °F
Dew Point 20 °F
Humidity 63%
Rainfall 0.09 in
Snow Depth Not available.
UV 2 out of 12
Pollen .60 out of 12
Air Quality Not available.
Flu Activity Not available.
SPECI KMGW 021512Z 29009KT 10SM SCT025 SCT029 BKN037 M02/M09 A3041 RMK AO2 T10171089

More Conditions Fewer Conditions

10-Day Weather Forecast

Almanac

Astronomy

Mar. 02, 2015 Rise Set
Actual Time
Civil Twilight
Nautical Twilight
Astronomical Twilight
Moon
Length of Visible Light
Length of Day
Tomorrow will be .
, % of the Moon is Illuminated

Today's Extremes

State Highs State Lows

Community

WunderPhotos

Upload Photos

1,801,811 photos uploaded!

WunderBlogs® & News

Nearby

Air Quality

  Air Quality AQ Index Pollutant
Not available.

Snow Depth

Station Depth Elevation

Earthquake Activity

City Distance Mag. Time & Date
Minimum magnitude displayed is 2.5.

Coastal Water Temperatures

Place Temperature

Nearby Weather Stations